Time;durP1;ratioP1;P1;durP2;ratioP2;P2;SDS_P1;SDS_P2;PMS_P1;PMS_P2;Temp;Humidity;BMP_temperature;BMP_pressure;BME280_temperature;BME280_humidity;BME280_pressure;Samples;Min_cycle;Max_cycle;Signal;HPM_P1;HPM_P2
2022/10/09 00:00:12;;;;;;;;;;;;;;;16.11;59.01;100371.81;4252760;33;20341;-80
2022/10/09 00:02:39;;;;;;;;;;;;;;;15.97;59.95;100365.72;4253208;33;19978;-80
2022/10/09 00:05:06;;;;;;;;;;;;;;;15.90;60.63;100371.81;4252750;33;19985;-80
2022/10/09 00:07:32;;;;;;;;;;;;;;;16.04;60.09;100370.94;4253291;33;20053;-83
2022/10/09 00:09:59;;;;;;;;;;;;;;;16.04;60.25;100370.06;4252687;33;19985;-82
2022/10/09 00:12:26;;;;;;;;;;;;;;;16.15;60.29;100370.13;4252970;33;19997;-80
2022/10/09 00:14:53;;;;;;;;;;;;;;;16.21;60.10;100368.38;4252761;33;20008;-81
2022/10/09 00:17:20;;;;;;;;;;;;;;;16.22;59.99;100370.13;4262731;33;20003;-82
2022/10/09 00:19:47;;;;;;;;;;;;;;;16.22;59.79;100370.13;4267032;33;19989;-81
2022/10/09 00:22:14;;;;;;;;;;;;;;;16.20;59.71;100366.63;4266066;33;19985;-80
2022/10/09 00:24:41;;;;;;;;;;;;;;;16.28;59.23;100370.13;4281299;33;19989;-81
2022/10/09 00:27:08;;;;;;;;;;;;;;;16.24;59.26;100365.78;4281006;33;20007;-81
2022/10/09 00:29:35;;;;;;;;;;;;;;;16.22;59.37;100358.81;4281641;33;20007;-80
2022/10/09 00:32:02;;;;;;;;;;;;;;;16.06;59.72;100357.91;4280928;33;20263;-82
2022/10/09 00:34:28;;;;;;;;;;;;;;;16.14;59.34;100358.78;4280332;33;20003;-80
2022/10/09 00:36:55;;;;;;;;;;;;;;;16.13;59.42;100349.22;4292578;33;19992;-81
2022/10/09 00:39:22;;;;;;;;;;;;;;;15.98;60.07;100350.03;4295811;33;19992;-81
2022/10/09 00:41:48;;;;;;;;;;;;;;;16.19;59.92;100354.44;4282661;33;19976;-82
2022/10/09 00:44:34;;;;;;;;;;;;;;;16.24;59.75;100349.22;4295823;33;19992;-80
2022/10/09 00:47:01;;;;;;;;;;;;;;;16.03;60.52;100342.22;4286770;33;20024;-78
2022/10/09 00:49:28;;;;;;;;;;;;;;;16.17;60.17;100348.34;4282887;33;20007;-81
2022/10/09 00:51:56;;;;;;;;;;;;;;;16.05;60.29;100343.13;4276800;33;20392;-80
2022/10/09 00:54:23;;;;;;;;;;;;;;;16.04;60.39;100338.75;4268626;33;20000;-80
2022/10/09 00:56:50;;;;;;;;;;;;;;;16.28;59.66;100336.19;4270099;33;20009;-81
2022/10/09 00:59:17;;;;;;;;;;;;;;;16.16;60.05;100328.31;4266438;33;19988;-81
2022/10/09 01:01:44;;;;;;;;;;;;;;;16.22;59.96;100333.56;4283913;33;19991;-80
2022/10/09 01:04:11;;;;;;;;;;;;;;;16.27;59.76;100326.59;4297763;33;20780;-81
2022/10/09 01:06:38;;;;;;;;;;;;;;;16.30;59.39;100319.63;4289257;33;19984;-83
2022/10/09 01:09:04;;;;;;;;;;;;;;;16.04;60.15;100323.94;4288114;33;19988;-81
2022/10/09 01:11:40;;;;;;;;;;;;;;;16.26;59.35;100321.38;4283109;33;19999;-78
2022/10/09 01:14:07;;;;;;;;;;;;;;;16.11;59.61;100324.81;4265776;33;19997;-82
2022/10/09 01:16:40;;;;;;;;;;;;;;;16.20;59.49;100330.06;4254355;33;20384;-80
2022/10/09 01:19:19;;;;;;;;;;;;;;;16.16;59.63;100330.94;4252692;33;20008;-83
2022/10/09 01:22:05;;;;;;;;;;;;;;;16.15;59.31;100331.81;4254088;33;20033;-80
2022/10/09 01:24:32;;;;;;;;;;;;;;;16.06;59.52;100334.41;4256647;33;20354;-80
2022/10/09 01:27:13;;;;;;;;;;;;;;;15.94;59.90;100326.53;4253964;33;19993;-80
2022/10/09 01:29:44;;;;;;;;;;;;;;;16.05;60.06;100332.69;4253145;33;20005;-80
2022/10/09 01:32:12;;;;;;;;;;;;;;;16.13;60.01;100328.31;4246569;33;20007;-81
2022/10/09 01:34:38;;;;;;;;;;;;;;;16.04;60.38;100333.53;4249188;33;19993;-82
2022/10/09 01:37:05;;;;;;;;;;;;;;;16.21;60.42;100331.81;4255079;33;20323;-82
2022/10/09 01:39:32;;;;;;;;;;;;;;;16.14;60.97;100340.50;4261786;33;20359;-81
2022/10/09 01:41:59;;;;;;;;;;;;;;;16.30;61.18;100332.69;4267144;33;19982;-81
2022/10/09 01:44:27;;;;;;;;;;;;;;;15.98;63.30;100331.75;4269527;33;19996;-83
2022/10/09 01:46:54;;;;;;;;;;;;;;;16.25;62.69;100338.78;4282910;33;20007;-83
2022/10/09 01:49:24;;;;;;;;;;;;;;;16.20;63.51;100330.06;4266010;33;19993;-82
2022/10/09 01:51:56;;;;;;;;;;;;;;;16.11;64.16;100340.50;4282531;33;19999;-82
2022/10/09 01:54:31;;;;;;;;;;;;;;;16.28;63.62;100323.12;4269526;33;19989;-82
2022/10/09 01:56:58;;;;;;;;;;;;;;;16.15;64.33;100326.59;4264222;33;19993;-82
2022/10/09 01:59:25;;;;;;;;;;;;;;;16.31;63.74;100321.38;4269526;33;20003;-80
2022/10/09 02:01:52;;;;;;;;;;;;;;;16.55;62.90;100329.19;4268916;33;19988;-80
2022/10/09 02:04:19;;;;;;;;;;;;;;;16.60;62.72;100330.06;4260313;33;20002;-80
2022/10/09 02:06:46;;;;;;;;;;;;;;;16.66;62.64;100335.31;4265738;33;20019;-81
2022/10/09 02:09:13;;;;;;;;;;;;;;;16.70;62.45;100331.81;4267941;33;19977;-80
2022/10/09 02:11:41;;;;;;;;;;;;;;;16.65;62.44;100338.78;4266348;33;19976;-80
2022/10/09 02:14:08;;;;;;;;;;;;;;;16.68;62.62;100338.75;4267124;33;19993;-83
2022/10/09 02:16:36;;;;;;;;;;;;;;;16.68;62.72;100344.00;4268435;33;20001;-83
2022/10/09 02:19:06;;;;;;;;;;;;;;;16.83;62.29;100352.75;4267873;33;20087;-83
2022/10/09 02:21:36;;;;;;;;;;;;;;;16.97;61.93;100358.81;4267303;33;19988;-83
2022/10/09 02:24:03;;;;;;;;;;;;;;;16.92;62.50;100357.97;4266832;33;19985;-83
2022/10/09 02:26:30;;;;;;;;;;;;;;;16.87;62.79;100364.94;4266535;33;20446;-82
2022/10/09 02:28:57;;;;;;;;;;;;;;;16.93;62.75;100359.69;4267343;33;19989;-82
2022/10/09 02:31:26;;;;;;;;;;;;;;;16.93;62.96;100355.34;4266601;33;20324;-81
2022/10/09 02:33:54;;;;;;;;;;;;;;;16.52;64.86;100360.56;4266076;33;20008;-78
2022/10/09 02:36:20;;;;;;;;;;;;;;;16.73;64.19;100357.94;4269344;33;20057;-81
2022/10/09 02:38:47;;;;;;;;;;;;;;;16.91;63.50;100357.09;4268556;33;19989;-82
2022/10/09 02:41:14;;;;;;;;;;;;;;;17.09;63.00;100364.03;4278268;33;20012;-82
2022/10/09 02:43:40;;;;;;;;;;;;;;;17.08;63.07;100375.38;4273013;33;19989;-83
2022/10/09 02:46:07;;;;;;;;;;;;;;;17.12;63.00;100371.88;4282257;33;19992;-81
2022/10/09 02:48:34;;;;;;;;;;;;;;;17.06;63.12;100377.09;4282375;33;19988;-81
2022/10/09 02:51:01;;;;;;;;;;;;;;;17.11;63.11;100382.34;4269028;33;20464;-83
2022/10/09 02:53:28;;;;;;;;;;;;;;;17.10;63.12;100378.88;4281422;33;19990;-81
2022/10/09 02:55:55;;;;;;;;;;;;;;;17.06;63.38;100382.34;4282558;33;20403;-83
2022/10/09 02:58:21;;;;;;;;;;;;;;;17.03;63.63;100392.81;4282504;33;19985;-82
2022/10/09 03:00:52;;;;;;;;;;;;;;;17.23;63.11;100399.75;4268840;33;19995;-80
2022/10/09 03:03:19;;;;;;;;;;;;;;;17.29;62.93;100389.25;4282305;33;19996;-81
2022/10/09 03:05:45;;;;;;;;;;;;;;;17.18;63.36;100403.25;4269206;33;20015;-80
2022/10/09 03:08:13;;;;;;;;;;;;;;;17.01;64.12;100393.72;4268642;33;19985;-80
2022/10/09 03:10:39;;;;;;;;;;;;;;;17.24;63.50;100396.28;4262435;33;19981;-83
2022/10/09 03:13:06;;;;;;;;;;;;;;;17.14;64.11;100396.28;4277974;33;20048;-80
2022/10/09 03:15:34;;;;;;;;;;;;;;;17.16;64.06;100394.53;4278185;33;19989;-81
2022/10/09 03:18:00;;;;;;;;;;;;;;;17.07;64.61;100389.34;4271165;33;20007;-80
2022/10/09 03:20:30;;;;;;;;;;;;;;;17.10;64.63;100394.56;4281269;33;20415;-83
2022/10/09 03:22:57;;;;;;;;;;;;;;;17.16;64.59;100397.13;4281593;33;20359;-82
2022/10/09 03:25:24;;;;;;;;;;;;;;;17.10;64.72;100397.19;4281634;33;20005;-82
2022/10/09 03:27:50;;;;;;;;;;;;;;;17.17;64.44;100406.75;4282434;33;19984;-81
2022/10/09 03:30:17;;;;;;;;;;;;;;;17.37;63.96;100409.31;4263998;33;19988;-78
2022/10/09 03:32:44;;;;;;;;;;;;;;;17.17;64.64;100401.50;4281074;33;19996;-81
2022/10/09 03:35:11;;;;;;;;;;;;;;;17.27;64.35;100396.28;4281243;33;20044;-82
2022/10/09 03:37:38;;;;;;;;;;;;;;;16.98;65.37;100410.28;3981848;33;10008788;-80
2022/10/09 03:40:05;;;;;;;;;;;;;;;17.06;65.17;100408.50;4273804;33;20000;-83
2022/10/09 03:42:31;;;;;;;;;;;;;;;17.26;64.65;100394.50;4281709;33;20018;-81
2022/10/09 03:45:03;;;;;;;;;;;;;;;17.23;64.75;100394.50;4281756;33;19988;-81
2022/10/09 03:47:30;;;;;;;;;;;;;;;17.45;64.10;100396.19;4282049;33;20343;-80
2022/10/09 03:49:57;;;;;;;;;;;;;;;17.43;64.12;100408.44;4280914;33;20003;-81
2022/10/09 03:52:24;;;;;;;;;;;;;;;17.24;64.98;100417.22;4281593;33;19981;-80
2022/10/09 03:54:51;;;;;;;;;;;;;;;17.32;64.72;100421.53;4281888;33;19996;-82
2022/10/09 03:57:17;;;;;;;;;;;;;;;17.27;64.93;100428.53;4274143;33;19999;-82
2022/10/09 03:59:44;;;;;;;;;;;;;;;16.97;65.89;100437.28;4281974;33;20003;-83
2022/10/09 04:02:11;;;;;;;;;;;;;;;16.95;66.36;100433.81;4281427;33;20004;-80
2022/10/09 04:04:38;;;;;;;;;;;;;;;17.18;65.60;100432.03;4282073;33;19981;-82
2022/10/09 04:07:05;;;;;;;;;;;;;;;17.19;65.55;100436.38;4282169;33;20302;-81
2022/10/09 04:09:31;;;;;;;;;;;;;;;17.17;65.62;100427.69;4281670;33;20052;-82
2022/10/09 04:11:58;;;;;;;;;;;;;;;17.26;65.34;100433.75;4281908;33;19999;-81
2022/10/09 04:14:25;;;;;;;;;;;;;;;17.36;64.99;100425.91;4281949;33;19997;-80
2022/10/09 04:16:52;;;;;;;;;;;;;;;17.18;65.70;100424.19;4281656;33;20037;-82
2022/10/09 04:19:19;;;;;;;;;;;;;;;17.31;65.29;100424.16;4281954;33;19989;-80
2022/10/09 04:21:45;;;;;;;;;;;;;;;16.59;67.95;100417.22;4280608;33;20272;-80
2022/10/09 04:24:12;;;;;;;;;;;;;;;16.85;67.30;100439.91;4281612;33;20001;-81
2022/10/09 04:26:39;;;;;;;;;;;;;;;17.26;65.82;100425.91;4281549;33;20003;-81
2022/10/09 04:29:06;;;;;;;;;;;;;;;17.33;65.56;100422.44;4279999;33;20071;-80
2022/10/09 04:31:32;;;;;;;;;;;;;;;17.34;65.50;100434.63;4274465;33;19992;-80
2022/10/09 04:33:59;;;;;;;;;;;;;;;17.45;65.16;100438.06;4278192;33;20011;-82
2022/10/09 04:36:26;;;;;;;;;;;;;;;17.47;65.00;100441.56;4285846;33;20043;-82
2022/10/09 04:38:53;;;;;;;;;;;;;;;17.46;64.95;100450.31;4283287;33;20003;-81
2022/10/09 04:41:20;;;;;;;;;;;;;;;17.41;65.08;100438.97;4262735;33;19996;-80
2022/10/09 04:43:47;;;;;;;;;;;;;;;17.49;65.06;100450.31;4284079;33;19993;-80
2022/10/09 04:46:14;;;;;;;;;;;;;;;17.41;65.27;100473.00;4236194;33;20016;-81
2022/10/09 04:48:41;;;;;;;;;;;;;;;17.41;65.29;100467.75;4246222;33;20022;-82
2022/10/09 04:51:08;;;;;;;;;;;;;;;17.48;65.16;100484.31;4241999;33;19994;-82
2022/10/09 04:53:35;;;;;;;;;;;;;;;17.51;65.03;100495.66;4238166;33;20010;-81
2022/10/09 04:56:03;;;;;;;;;;;;;;;17.49;65.09;100497.41;4240161;33;20008;-82
2022/10/09 04:58:30;;;;;;;;;;;;;;;17.54;65.15;100503.50;4244954;33;19986;-80
2022/10/09 05:00:56;;;;;;;;;;;;;;;17.34;66.05;100497.44;4242191;33;20714;-79
2022/10/09 05:03:24;;;;;;;;;;;;;;;17.47;65.78;100493.91;4246045;33;20332;-79
2022/10/09 05:05:50;;;;;;;;;;;;;;;17.57;65.47;100500.88;4252779;33;19994;-81
2022/10/09 05:08:17;;;;;;;;;;;;;;;17.76;64.66;100487.75;4251903;33;20004;-81
2022/10/09 05:10:45;;;;;;;;;;;;;;;17.70;64.87;100487.75;4265063;33;20455;-80
2022/10/09 05:13:12;;;;;;;;;;;;;;;17.67;65.09;100492.13;4266807;33;20005;-81
2022/10/09 05:15:39;;;;;;;;;;;;;;;17.60;65.37;100495.63;4266194;33;20021;-81
2022/10/09 05:18:05;;;;;;;;;;;;;;;17.66;65.20;100500.84;4265272;33;19985;-81
2022/10/09 05:20:32;;;;;;;;;;;;;;;17.63;65.44;100490.41;4266374;33;19999;-81
2022/10/09 05:22:59;;;;;;;;;;;;;;;17.42;66.05;100485.19;4248569;33;20004;-81
2022/10/09 05:25:26;;;;;;;;;;;;;;;17.63;65.17;100495.63;4268846;33;20434;-81
2022/10/09 05:27:53;;;;;;;;;;;;;;;17.63;65.10;100506.09;4252354;33;19990;-81
2022/10/09 05:30:19;;;;;;;;;;;;;;;17.79;64.49;100500.88;4266529;33;19985;-81
2022/10/09 05:32:46;;;;;;;;;;;;;;;17.87;64.20;100499.97;4270063;33;20355;-82
2022/10/09 05:35:13;;;;;;;;;;;;;;;17.78;64.48;100504.38;4267200;33;20399;-80
2022/10/09 05:37:42;;;;;;;;;;;;;;;17.88;64.00;100506.06;4252425;33;20000;-80
2022/10/09 05:40:09;;;;;;;;;;;;;;;17.94;63.82;100508.69;4246215;33;20003;-79
2022/10/09 05:42:36;;;;;;;;;;;;;;;17.96;63.63;100506.03;4266380;33;20057;-81
2022/10/09 05:45:03;;;;;;;;;;;;;;;18.07;63.14;100513.00;4267874;33;20001;-80
2022/10/09 05:47:30;;;;;;;;;;;;;;;17.97;63.54;100516.53;4267372;33;20011;-80
2022/10/09 05:49:56;;;;;;;;;;;;;;;17.90;63.79;100514.81;4267795;33;20007;-81
2022/10/09 05:52:23;;;;;;;;;;;;;;;17.76;64.20;100506.06;4268883;33;20012;-79
2022/10/09 05:54:50;;;;;;;;;;;;;;;17.91;63.75;100510.44;4268379;33;19989;-81
2022/10/09 05:57:17;;;;;;;;;;;;;;;17.81;64.00;100509.59;4264448;33;19996;-81
2022/10/09 05:59:44;;;;;;;;;;;;;;;17.81;64.19;100514.84;4265472;33;19984;-79
2022/10/09 06:02:11;;;;;;;;;;;;;;;17.88;64.01;100521.78;4268220;33;20359;-78
2022/10/09 06:04:38;;;;;;;;;;;;;;;17.97;63.60;100506.06;4268231;33;19989;-79
2022/10/09 06:07:04;;;;;;;;;;;;;;;17.66;64.45;100516.56;4267965;33;19997;-79
2022/10/09 06:09:31;;;;;;;;;;;;;;;17.74;64.02;100513.06;4256091;33;19992;-80
2022/10/09 06:11:58;;;;;;;;;;;;;;;17.84;63.71;100520.06;4268576;33;20024;-78
2022/10/09 06:14:25;;;;;;;;;;;;;;;17.95;63.47;100522.66;4266342;33;20008;-80
2022/10/09 06:16:51;;;;;;;;;;;;;;;17.87;63.53;100520.94;4274961;33;20041;-79
2022/10/09 06:19:19;;;;;;;;;;;;;;;17.89;63.55;100534.00;4267357;33;19973;-79
2022/10/09 06:21:46;;;;;;;;;;;;;;;18.05;62.98;100534.84;4251427;33;19993;-79
2022/10/09 06:24:16;;;;;;;;;;;;;;;17.88;63.46;100542.75;4274180;33;19989;-82
2022/10/09 06:26:43;;;;;;;;;;;;;;;17.69;64.08;100541.00;4256652;33;20030;-79
2022/10/09 06:29:10;;;;;;;;;;;;;;;17.90;63.41;100551.50;4256455;33;20009;-82
2022/10/09 06:31:36;;;;;;;;;;;;;;;17.82;63.77;100548.00;4247326;33;20012;-83
2022/10/09 06:34:03;;;;;;;;;;;;;;;17.99;63.29;100551.44;4253738;33;19977;-82
2022/10/09 06:36:33;;;;;;;;;;;;;;;18.12;62.93;100557.50;4267943;33;19992;-78
2022/10/09 06:39:00;;;;;;;;;;;;;;;18.17;62.86;100562.75;4266747;33;19985;-80
2022/10/09 06:41:28;;;;;;;;;;;;;;;18.01;63.38;100560.16;4279536;33;19994;-82
2022/10/09 06:43:55;;;;;;;;;;;;;;;18.13;62.92;100560.13;4247599;33;20004;-80
2022/10/09 06:46:23;;;;;;;;;;;;;;;18.17;63.13;100562.75;4268213;33;19993;-82
2022/10/09 06:48:50;;;;;;;;;;;;;;;18.23;62.87;100560.09;4266397;33;20117;-82
2022/10/09 06:51:18;;;;;;;;;;;;;;;18.34;62.42;100568.78;4256734;33;20020;-81
2022/10/09 06:53:45;;;;;;;;;;;;;;;18.40;62.15;100574.00;4251409;33;20093;-82
2022/10/09 06:56:13;;;;;;;;;;;;;;;18.44;61.92;100565.28;4254424;33;20000;-81
2022/10/09 06:58:39;;;;;;;;;;;;;;;18.58;61.51;100571.31;4275016;33;20469;-82
2022/10/09 07:01:07;;;;;;;;;;;;;;;18.73;61.03;100569.50;4268331;33;20876;-90
2022/10/09 07:03:35;;;;;;;;;;;;;;;19.00;59.60;100571.97;4254990;33;19981;-83
2022/10/09 07:06:05;;;;;;;;;;;;;;;19.19;58.76;100574.47;4254940;33;20041;-85
2022/10/09 07:08:32;;;;;;;;;;;;;;;19.30;59.14;100577.88;4261767;33;20409;-82
2022/10/09 07:10:59;;;;;;;;;;;;;;;19.49;58.44;100579.44;4251602;33;20009;-81
2022/10/09 07:13:28;;;;;;;;;;;;;;;19.58;57.86;100580.28;4265970;33;20391;-82
2022/10/09 07:15:54;;;;;;;;;;;;;;;20.04;57.27;100579.84;4272591;33;19989;-85
2022/10/09 07:18:21;;;;;;;;;;;;;;;20.28;56.30;100579.56;4266538;33;19989;-81
2022/10/09 07:20:48;;;;;;;;;;;;;;;20.55;55.00;100588.94;4257861;33;20394;-81
2022/10/09 07:23:15;;;;;;;;;;;;;;;20.78;55.00;100590.38;4269766;33;20041;-81
2022/10/09 07:25:42;;;;;;;;;;;;;;;21.14;53.13;100591.59;4255240;33;20299;-82
2022/10/09 07:28:08;;;;;;;;;;;;;;;21.33;51.56;100584.28;4258207;33;19988;-81
2022/10/09 07:30:38;;;;;;;;;;;;;;;21.40;51.20;100582.44;4274194;33;20061;-81
2022/10/09 07:33:05;;;;;;;;;;;;;;;21.49;51.92;100590.19;4268006;33;20003;-82
2022/10/09 07:35:32;;;;;;;;;;;;;;;21.76;50.26;100584.47;4265752;33;19989;-82
2022/10/09 07:37:59;;;;;;;;;;;;;;;21.79;50.15;100589.69;4273465;33;20004;-83
2022/10/09 07:40:26;;;;;;;;;;;;;;;21.91;51.40;100587.69;4269005;33;19997;-83
2022/10/09 07:42:53;;;;;;;;;;;;;;;22.10;50.34;100594.34;4268559;33;19992;-83
2022/10/09 07:45:20;;;;;;;;;;;;;;;22.32;50.06;100591.34;4279510;33;20527;-82
2022/10/09 07:47:47;;;;;;;;;;;;;;;22.46;48.60;100599.81;4275551;33;19981;-83
2022/10/09 07:50:13;;;;;;;;;;;;;;;22.49;48.28;100595.38;4255607;33;20001;-81
2022/10/09 07:52:40;;;;;;;;;;;;;;;22.21;49.31;100592.44;4282257;33;20008;-83
2022/10/09 07:55:07;;;;;;;;;;;;;;;22.49;48.66;100597.13;4282425;33;20000;-81
2022/10/09 07:57:34;;;;;;;;;;;;;;;22.70;49.07;100596.69;4276011;33;19977;-84
2022/10/09 08:00:00;;;;;;;;;;;;;;;22.48;48.44;100595.41;4267059;33;20001;-84
2022/10/09 08:02:37;;;;;;;;;;;;;;;22.39;48.79;100585.03;4266177;33;20004;-84
2022/10/09 08:05:04;;;;;;;;;;;;;;;22.60;48.10;100584.59;4268935;33;19989;-84
2022/10/09 08:07:31;;;;;;;;;;;;;;;22.97;46.67;100594.34;4267451;33;19981;-81
2022/10/09 08:10:00;;;;;;;;;;;;;;;22.96;47.25;100582.06;4265926;33;20082;-82
2022/10/09 08:12:27;;;;;;;;;;;;;;;22.92;47.58;100585.66;4270726;33;19993;-84
2022/10/09 08:14:54;;;;;;;;;;;;;;;22.88;48.84;100589.28;4266624;33;20391;-82
2022/10/09 08:17:20;;;;;;;;;;;;;;;23.15;48.20;100588.66;4266680;33;20017;-83
2022/10/09 08:19:47;;;;;;;;;;;;;;;23.10;47.78;100584.38;4266502;33;19985;-84
2022/10/09 08:22:14;;;;;;;;;;;;;;;23.12;46.65;100588.72;4266461;33;20041;-86
2022/10/09 08:24:41;;;;;;;;;;;;;;;23.14;46.63;100589.56;4267586;33;20273;-85
2022/10/09 08:27:08;;;;;;;;;;;;;;;23.18;46.52;100578.00;4266764;33;19991;-83
2022/10/09 08:29:35;;;;;;;;;;;;;;;22.80;47.72;100586.78;4280227;33;19993;-83
2022/10/09 08:32:05;;;;;;;;;;;;;;;23.17;47.05;100596.56;4271492;33;19997;-85
2022/10/09 08:34:32;;;;;;;;;;;;;;;23.19;46.69;100590.28;4247984;33;865421;-83
2022/10/09 08:36:59;;;;;;;;;;;;;;;22.94;47.75;100594.41;4272348;33;19999;-82
2022/10/09 08:39:29;;;;;;;;;;;;;;;23.26;46.34;100590.16;4281286;33;20385;-81
2022/10/09 08:41:57;;;;;;;;;;;;;;;22.89;48.34;100596.28;4281372;33;19993;-81
2022/10/09 08:44:24;;;;;;;;;;;;;;;22.91;48.51;100599.72;4265762;33;20007;-80
2022/10/09 08:46:59;;;;;;;;;;;;;;;23.33;46.04;100602.34;4241415;33;19998;-81
2022/10/09 08:49:26;;;;;;;;;;;;;;;23.43;44.91;100598.56;4263434;33;20039;-82
2022/10/09 08:51:53;;;;;;;;;;;;;;;23.16;47.45;100600.94;4263263;33;20053;-83
2022/10/09 08:54:21;;;;;;;;;;;;;;;23.13;47.83;100601.03;4240427;33;19999;-82
2022/10/09 08:56:48;;;;;;;;;;;;;;;23.45;45.87;100609.94;4265161;33;19997;-82
2022/10/09 08:59:15;;;;;;;;;;;;;;;23.72;44.82;100612.84;4266252;33;20025;-82
2022/10/09 09:01:57;;;;;;;;;;;;;;;23.59;44.13;100610.47;4255125;33;20008;-84
2022/10/09 09:04:37;;;;;;;;;;;;;;;23.35;45.83;100617.22;4251230;33;19985;-84
2022/10/09 09:07:19;;;;;;;;;;;;;;;23.38;45.57;100616.28;4252646;33;20339;-84
2022/10/09 09:09:49;;;;;;;;;;;;;;;23.66;43.28;100617.34;4256541;33;20343;-84
2022/10/09 09:12:21;;;;;;;;;;;;;;;23.66;43.48;100612.03;4271773;33;20725;-87
2022/10/09 09:14:50;;;;;;;;;;;;;;;24.00;42.24;100616.50;4251207;33;20001;-86
2022/10/09 09:17:20;;;;;;;;;;;;;;;23.58;44.43;100619.31;4266753;33;19977;-86
2022/10/09 09:20:03;;;;;;;;;;;;;;;23.99;41.49;100617.38;4266783;33;20757;-84
2022/10/09 09:22:31;;;;;;;;;;;;;;;24.04;42.42;100618.16;4266425;33;20322;-85
2022/10/09 09:24:58;;;;;;;;;;;;;;;24.00;39.97;100621.78;4252561;33;20037;-83
2022/10/09 09:27:26;;;;;;;;;;;;;;;23.93;41.37;100627.25;4256347;33;20004;-81
2022/10/09 09:29:55;;;;;;;;;;;;;;;23.74;41.36;100629.50;4267410;33;20095;-85
2022/10/09 09:32:22;;;;;;;;;;;;;;;23.61;42.83;100621.88;4258702;33;19997;-85
2022/10/09 09:34:49;;;;;;;;;;;;;;;23.95;41.14;100623.69;4235365;33;20774;-86
2022/10/09 09:37:16;;;;;;;;;;;;;;;23.54;41.63;100632.63;4270629;33;20342;-82
2022/10/09 09:39:43;;;;;;;;;;;;;;;22.92;44.42;100628.75;4268391;33;20003;-82
2022/10/09 09:42:30;;;;;;;;;;;;;;;22.68;45.05;100635.41;4267819;33;19990;-81
2022/10/09 09:44:58;;;;;;;;;;;;;;;23.06;42.96;100631.13;4247033;33;20042;-81
2022/10/09 09:47:26;;;;;;;;;;;;;;;22.53;45.11;100635.75;4262415;33;20404;-82
2022/10/09 09:49:54;;;;;;;;;;;;;;;22.47;44.21;100635.88;4263220;33;20013;-83
2022/10/09 09:52:21;;;;;;;;;;;;;;;22.85;43.11;100634.22;4273209;33;19989;-83
2022/10/09 09:54:48;;;;;;;;;;;;;;;23.04;43.07;100635.59;4254881;33;19993;-81
2022/10/09 09:57:19;;;;;;;;;;;;;;;22.93;41.96;100640.19;4251499;33;20012;-83
2022/10/09 09:59:47;;;;;;;;;;;;;;;22.75;43.80;100637.06;4267777;33;20096;-82
2022/10/09 10:02:19;;;;;;;;;;;;;;;22.55;45.22;100638.34;4267640;33;20003;-82
2022/10/09 10:04:50;;;;;;;;;;;;;;;22.77;43.55;100644.06;4255224;33;19978;-82
2022/10/09 10:07:37;;;;;;;;;;;;;;;22.68;45.01;100640.69;4258240;33;19988;-82
2022/10/09 10:10:21;;;;;;;;;;;;;;;22.92;42.36;100638.47;4273319;33;20008;-82
2022/10/09 10:12:51;;;;;;;;;;;;;;;22.79;43.32;100647.56;4266728;33;20037;-81
2022/10/09 10:15:31;;;;;;;;;;;;;;;22.75;43.25;100652.88;4282979;33;20359;-82
2022/10/09 10:18:15;;;;;;;;;;;;;;;22.22;45.95;100646.91;4256533;33;19980;-82
2022/10/09 10:20:43;;;;;;;;;;;;;;;22.50;47.49;100646.38;4268652;33;20180;-82
2022/10/09 10:23:20;;;;;;;;;;;;;;;23.09;43.05;100644.25;4256499;33;19985;-81
2022/10/09 10:25:47;;;;;;;;;;;;;;;23.15;43.29;100651.19;4266855;33;20007;-80
2022/10/09 10:28:16;;;;;;;;;;;;;;;23.09;42.78;100646.87;4267459;33;19999;-82
2022/10/09 10:30:43;;;;;;;;;;;;;;;23.21;40.83;100646.63;4268730;33;20319;-81
2022/10/09 10:33:10;;;;;;;;;;;;;;;22.88;42.66;100642.06;4264032;33;19996;-81
2022/10/09 10:35:37;;;;;;;;;;;;;;;22.73;44.08;100645.91;4281773;33;20327;-80
2022/10/09 10:38:07;;;;;;;;;;;;;;;22.66;41.67;100646.94;4270806;33;20355;-82
2022/10/09 10:40:36;;;;;;;;;;;;;;;22.12;41.70;100644.44;4256524;33;20312;-83
2022/10/09 10:43:06;;;;;;;;;;;;;;;22.80;40.75;100650.13;4256564;33;21325;-82
2022/10/09 10:45:33;;;;;;;;;;;;;;;22.71;43.36;100651.19;4286238;33;20328;-80
2022/10/09 10:48:01;;;;;;;;;;;;;;;22.20;46.70;100653.09;4256379;33;20835;-81
2022/10/09 10:50:28;;;;;;;;;;;;;;;22.01;44.72;100647.25;4268863;33;20020;-81
2022/10/09 10:53:04;;;;;;;;;;;;;;;22.45;45.02;100648.22;4277319;33;19980;-83
2022/10/09 10:55:34;;;;;;;;;;;;;;;22.63;44.00;100637.31;4281465;33;20001;-84
2022/10/09 10:58:04;;;;;;;;;;;;;;;22.32;45.92;100636.19;4242419;33;20009;-86
2022/10/09 11:00:32;;;;;;;;;;;;;;;22.64;45.19;100644.31;4273160;33;19988;-83
2022/10/09 11:03:02;;;;;;;;;;;;;;;22.48;47.01;100637.63;4255832;33;19996;-82
2022/10/09 11:05:41;;;;;;;;;;;;;;;22.64;43.73;100633.75;4268902;33;19984;-82
2022/10/09 11:08:27;;;;;;;;;;;;;;;23.10;42.62;100634.53;4267585;33;19999;-83
2022/10/09 11:11:12;;;;;;;;;;;;;;;22.93;44.05;100629.63;4267601;33;19989;-83
2022/10/09 11:13:51;;;;;;;;;;;;;;;23.31;39.80;100625.28;4266717;33;20004;-83
2022/10/09 11:16:25;;;;;;;;;;;;;;;22.93;41.33;100624.34;4243435;33;19997;-84
2022/10/09 11:19:09;;;;;;;;;;;;;;;22.97;41.98;100631.31;4252550;33;20055;-84
2022/10/09 11:21:51;;;;;;;;;;;;;;;23.05;41.59;100624.09;4245110;33;19989;-83
2022/10/09 11:24:30;;;;;;;;;;;;;;;22.80;42.20;100628.16;4273492;33;20004;-83
2022/10/09 11:27:03;;;;;;;;;;;;;;;22.74;42.70;100630.00;4270414;33;19993;-79
2022/10/09 11:29:32;;;;;;;;;;;;;;;23.07;41.44;100632.88;4254022;33;20331;-84
2022/10/09 11:32:12;;;;;;;;;;;;;;;22.96;42.67;100624.31;4249321;33;20002;-82
2022/10/09 11:34:43;;;;;;;;;;;;;;;22.80;45.32;100622.88;4254677;33;19997;-82
2022/10/09 11:37:13;;;;;;;;;;;;;;;22.95;42.92;100622.59;4253128;33;19989;-82
2022/10/09 11:39:40;;;;;;;;;;;;;;;23.14;40.69;100629.19;4273480;33;19985;-82
2022/10/09 11:42:06;;;;;;;;;;;;;;;23.38;39.57;100618.94;4250565;33;20004;-82
2022/10/09 11:44:38;;;;;;;;;;;;;;;23.23;40.25;100616.66;4254200;33;19997;-82
2022/10/09 11:47:14;;;;;;;;;;;;;;;23.42;38.88;100612.66;3825433;33;10012529;-82
2022/10/09 11:49:49;;;;;;;;;;;;;;;23.63;38.45;100613.91;4253354;33;19989;-83
2022/10/09 11:52:23;;;;;;;;;;;;;;;23.78;37.84;100608.25;4244896;33;20008;-83
2022/10/09 11:54:50;;;;;;;;;;;;;;;23.56;38.31;100607.91;4243296;33;19989;-83
2022/10/09 11:57:25;;;;;;;;;;;;;;;23.49;39.34;100603.69;4267743;33;19993;-83
2022/10/09 12:00:01;;;;;;;;;;;;;;;23.79;40.20;100602.06;4264525;33;20041;-82
2022/10/09 12:02:29;;;;;;;;;;;;;;;23.79;39.23;100601.19;4272908;33;19981;-82
2022/10/09 12:04:56;;;;;;;;;;;;;;;23.88;38.59;100601.81;4253817;33;20569;-84
2022/10/09 12:07:26;;;;;;;;;;;;;;;23.92;38.43;100597.31;4264403;33;19993;-79
2022/10/09 12:09:55;;;;;;;;;;;;;;;23.76;37.90;100596.84;4266921;33;20005;-80
2022/10/09 12:12:23;;;;;;;;;;;;;;;23.50;38.93;100600.13;4267077;33;20037;-83
2022/10/09 12:14:50;;;;;;;;;;;;;;;23.46;40.14;100598.47;4253290;33;20000;-80
2022/10/09 12:17:20;;;;;;;;;;;;;;;23.79;38.17;100595.91;4267235;33;20016;-80
2022/10/09 12:19:54;;;;;;;;;;;;;;;23.55;38.95;100603.53;4274920;33;19989;-82
2022/10/09 12:22:38;;;;;;;;;;;;;;;23.92;37.77;100597.31;4248618;33;19977;-79
2022/10/09 12:25:06;;;;;;;;;;;;;;;23.57;39.59;100596.41;4253451;33;20384;-80
2022/10/09 12:27:34;;;;;;;;;;;;;;;23.72;37.58;100599.63;4265979;33;20367;-80
2022/10/09 12:30:04;;;;;;;;;;;;;;;23.81;38.06;100594.09;4253002;33;20012;-81
2022/10/09 12:32:35;;;;;;;;;;;;;;;23.78;38.49;100604.75;4266448;33;19981;-81
2022/10/09 12:35:22;;;;;;;;;;;;;;;23.83;37.35;100597.56;4255058;33;20053;-81
2022/10/09 12:37:55;;;;;;;;;;;;;;;23.79;38.84;100593.25;4259680;33;20764;-85
2022/10/09 12:40:28;;;;;;;;;;;;;;;23.87;39.14;100586.00;4272809;33;20049;-82
2022/10/09 12:43:00;;;;;;;;;;;;;;;23.99;39.73;100583.00;4255419;33;20743;-83